Time,TemperatureF,DewpointF,PressureIn,WindDirection,WindDirectionDegrees,WindSpeedMPH,WindSpeedGustMPH,Humidity,HourlyPrecipIn,Conditions,Clouds,dailyrainin,SolarRadiationWatts/m^2,SoftwareType,DateUTC
2013-08-21 00:00:00,76.3,72.2,30.05,SSE,152,0.0,4.0,87,0.00,,,0.00,0.00,VWS V14.01,2013-08-21 04:00:00,
2013-08-21 00:01:00,75.6,71.8,30.06,ESE,110,0.0,5.0,88,0.00,,OVC110,0.00,0.00,VWS V14.01,2013-08-21 04:01:00,
2013-08-21 00:06:00,75.8,72.3,30.06,ESE,110,1.0,1.0,89,0.00,,OVC110,0.00,0.00,VWS V14.01,2013-08-21 04:06:00,
2013-08-21 00:11:00,75.6,71.5,30.06,ESE,110,0.0,3.0,87,0.00,,OVC110,0.00,0.00,VWS V14.01,2013-08-21 04:11:00,
2013-08-21 00:16:00,75.8,72.3,30.06,ESE,106,0.0,4.0,89,0.00,,OVC110,0.00,0.00,VWS V14.01,2013-08-21 04:16:00,
2013-08-21 00:21:00,76.0,72.2,30.06,East,87,1.0,4.0,88,0.00,,OVC110,0.00,0.00,VWS V14.01,2013-08-21 04:21:00,
2013-08-21 00:26:00,75.8,71.7,30.06,East,87,0.0,4.0,87,0.00,,OVC110,0.00,0.00,VWS V14.01,2013-08-21 04:26:00,
2013-08-21 00:30:00,76.3,71.1,30.06,SE,132,5.0,5.0,84,0.00,,,0.00,0.00,VWS V14.01,2013-08-21 04:30:00,
2013-08-21 00:31:00,75.6,71.5,30.06,East,87,0.0,0.0,87,0.00,,OVC110,0.00,0.00,VWS V14.01,2013-08-21 04:31:00,
2013-08-21 00:36:00,75.6,71.8,30.06,East,87,0.0,2.0,88,0.00,,OVC110,0.00,0.00,VWS V14.01,2013-08-21 04:36:00,
2013-08-21 00:41:00,75.8,72.3,30.06,East,84,4.0,4.0,89,0.00,,OVC110,0.00,0.00,VWS V14.01,2013-08-21 04:41:00,
2013-08-21 00:46:00,75.8,72.0,30.06,East,80,4.0,5.0,88,0.00,,OVC110,0.00,0.00,VWS V14.01,2013-08-21 04:46:00,
2013-08-21 00:51:00,75.8,71.3,30.06,East,80,1.0,5.0,86,0.00,,OVC110,0.00,0.00,VWS V14.01,2013-08-21 04:51:00,
2013-08-21 00:56:00,75.8,71.0,30.06,ENE,77,2.0,5.0,85,0.00,,OVC110,0.00,0.00,VWS V14.01,2013-08-21 04:56:00,
2013-08-21 01:00:00,75.6,71.8,30.06,ESE,110,0.0,5.0,88,0.00,,,0.00,0.00,VWS V14.01,2013-08-21 05:00:00,
2013-08-21 01:01:00,75.8,70.6,30.06,ENE,77,3.0,4.0,84,0.00,,OVC039,0.00,0.00,VWS V14.01,2013-08-21 05:01:00,
2013-08-21 01:06:00,76.0,71.2,30.06,ENE,77,3.0,4.0,85,0.00,,OVC039,0.00,0.00,VWS V14.01,2013-08-21 05:06:00,
2013-08-21 01:11:00,76.0,70.8,30.06,ENE,77,3.0,4.0,84,0.00,,OVC039,0.00,0.00,VWS V14.01,2013-08-21 05:11:00,
2013-08-21 01:16:00,75.8,70.3,30.06,ENE,77,0.0,4.0,83,0.00,,OVC039,0.00,0.00,VWS V14.01,2013-08-21 05:16:00,
2013-08-21 01:21:00,76.0,70.8,30.06,ENE,77,1.0,4.0,84,0.00,,OVC039,0.00,0.00,VWS V14.01,2013-08-21 05:21:00,
2013-08-21 01:26:00,76.0,70.8,30.06,ENE,77,4.0,4.0,84,0.00,,OVC039,0.00,0.00,VWS V14.01,2013-08-21 05:26:00,
2013-08-21 01:30:00,75.6,71.5,30.06,East,87,0.0,4.0,87,0.00,,,0.00,0.00,VWS V14.01,2013-08-21 05:30:00,
2013-08-21 01:31:00,76.1,70.9,30.06,ENE,77,0.0,3.0,84,0.00,,OVC039,0.00,0.00,VWS V14.01,2013-08-21 05:31:00,
2013-08-21 01:36:00,76.1,72.3,30.06,NE,40,4.0,4.0,88,0.00,,OVC039,0.00,0.00,VWS V14.01,2013-08-21 05:36:00,
2013-08-21 01:41:00,76.0,72.2,30.06,NNE,28,0.0,4.0,88,0.00,,OVC039,0.00,0.00,VWS V14.01,2013-08-21 05:41:00,
2013-08-21 01:46:00,75.6,72.1,30.06,NNE,28,0.0,4.0,89,0.00,,OVC039,0.00,0.00,VWS V14.01,2013-08-21 05:46:00,
2013-08-21 01:51:00,75.3,71.8,30.06,NNE,28,0.0,4.0,89,0.00,,OVC039,0.00,0.00,VWS V14.01,2013-08-21 05:51:00,
2013-08-21 01:56:00,75.1,72.0,30.06,NNE,28,2.0,4.0,90,0.00,,OVC039,0.00,0.00,VWS V14.01,2013-08-21 05:56:00,
2013-08-21 02:00:00,76.0,71.2,30.06,ENE,77,4.0,5.0,85,0.00,,,0.00,0.00,VWS V14.01,2013-08-21 06:00:00,
2013-08-21 02:01:00,75.1,72.0,30.05,NNE,28,0.0,2.0,90,0.00,,OVC044,0.00,0.00,VWS V14.01,2013-08-21 06:01:00,
2013-08-21 02:06:00,74.9,71.8,30.05,NNE,28,3.0,4.0,90,0.00,,OVC044,0.00,0.00,VWS V14.01,2013-08-21 06:06:00,
2013-08-21 02:11:00,74.9,72.1,30.05,NNE,28,0.0,4.0,91,0.00,,OVC044,0.00,0.00,VWS V14.01,2013-08-21 06:11:00,
2013-08-21 02:16:00,75.1,72.0,30.04,NNE,28,2.0,4.0,90,0.00,,OVC044,0.00,0.00,VWS V14.01,2013-08-21 06:16:00,
2013-08-21 02:21:00,75.1,72.0,30.04,NNE,28,1.0,4.0,90,0.00,,OVC044,0.00,0.00,VWS V14.01,2013-08-21 06:21:00,
2013-08-21 02:26:00,75.3,71.2,30.04,NNE,28,1.0,4.0,87,0.00,,OVC044,0.00,0.00,VWS V14.01,2013-08-21 06:26:00,
2013-08-21 02:30:00,76.1,71.3,30.06,ENE,77,3.0,4.0,85,0.00,,,0.00,0.00,VWS V14.01,2013-08-21 06:30:00,
2013-08-21 02:31:00,75.4,70.9,30.04,NE,44,2.0,3.0,86,0.00,,OVC044,0.00,0.00,VWS V14.01,2013-08-21 06:31:00,
2013-08-21 02:36:00,75.6,70.1,30.04,NE,44,0.0,4.0,83,0.00,,OVC044,0.00,0.00,VWS V14.01,2013-08-21 06:36:00,
2013-08-21 02:41:00,75.8,71.0,30.04,NE,44,0.0,4.0,85,0.00,,OVC044,0.00,0.00,VWS V14.01,2013-08-21 06:41:00,
2013-08-21 02:46:00,76.0,70.8,30.03,NE,44,3.0,4.0,84,0.00,,OVC044,0.00,0.00,VWS V14.01,2013-08-21 06:46:00,
2013-08-21 02:51:00,76.0,70.5,30.03,NE,44,3.0,5.0,83,0.00,,OVC044,0.00,0.00,VWS V14.01,2013-08-21 06:51:00,
2013-08-21 02:56:00,76.0,70.5,30.03,NE,44,0.0,5.0,83,0.00,,OVC044,0.00,0.00,VWS V14.01,2013-08-21 06:56:00,
2013-08-21 03:00:00,75.1,72.0,30.05,NNE,28,1.0,4.0,90,0.00,,,0.00,0.00,VWS V14.01,2013-08-21 07:00:00,
2013-08-21 03:01:00,76.0,71.9,30.03,North,360,2.0,2.0,87,0.00,,-RA,0.00,0.00,VWS V14.01,2013-08-21 07:01:00,
2013-08-21 03:06:00,75.8,72.0,30.03,North,360,0.0,4.0,88,0.00,,-RA,0.00,0.00,VWS V14.01,2013-08-21 07:06:00,
2013-08-21 03:11:00,75.6,71.8,30.03,North,360,0.0,4.0,88,0.00,,-RA,0.00,0.00,VWS V14.01,2013-08-21 07:11:00,
2013-08-21 03:16:00,75.4,71.9,30.03,North,360,2.0,4.0,89,0.00,,-RA,0.00,0.00,VWS V14.01,2013-08-21 07:16:00,
2013-08-21 03:21:00,75.4,71.9,30.03,North,360,1.0,4.0,89,0.00,,-RA,0.00,0.00,VWS V14.01,2013-08-21 07:21:00,
2013-08-21 03:26:00,75.3,71.5,30.03,NE,38,2.0,5.0,88,0.00,,-RA,0.00,0.00,VWS V14.01,2013-08-21 07:26:00,
2013-08-21 03:30:00,75.4,70.9,30.04,NE,44,2.0,4.0,86,0.00,,,0.00,0.00,VWS V14.01,2013-08-21 07:30:00,
2013-08-21 03:31:00,75.6,72.1,30.02,NE,38,4.0,4.0,89,0.00,,-RA,0.00,0.00,VWS V14.01,2013-08-21 07:31:00,
2013-08-21 03:36:00,75.6,71.8,30.02,NE,38,3.0,5.0,88,0.00,,-RA,0.00,0.00,VWS V14.01,2013-08-21 07:36:00,
2013-08-21 03:41:00,75.4,71.6,30.02,NE,39,3.0,5.0,88,0.00,,-RA,0.00,0.00,VWS V14.01,2013-08-21 07:41:00,
2013-08-21 03:46:00,75.3,71.5,30.03,NE,39,2.0,5.0,88,0.00,,-RA,0.00,0.00,VWS V14.01,2013-08-21 07:46:00,
2013-08-21 03:51:00,75.1,71.3,30.03,NE,39,3.0,5.0,88,0.00,,-RA,0.00,0.00,VWS V14.01,2013-08-21 07:51:00,
2013-08-21 03:56:00,75.1,71.0,30.03,NE,39,0.0,5.0,87,0.00,,-RA,0.00,0.00,VWS V14.01,2013-08-21 07:56:00,
2013-08-21 04:00:00,76.0,71.9,30.03,North,360,2.0,5.0,87,0.00,,,0.00,0.00,VWS V14.01,2013-08-21 08:00:00,
2013-08-21 04:01:00,75.1,71.3,30.03,NE,39,2.0,5.0,88,0.00,,-RA,0.00,0.00,VWS V14.01,2013-08-21 08:01:00,
2013-08-21 04:06:00,75.1,71.0,30.03,NE,39,3.0,3.0,87,0.00,,-RA,0.00,0.00,VWS V14.01,2013-08-21 08:06:00,
2013-08-21 04:11:00,75.3,71.2,30.03,NE,39,3.0,4.0,87,0.00,,-RA,0.00,0.00,VWS V14.01,2013-08-21 08:11:00,
2013-08-21 04:16:00,75.3,71.2,30.03,NE,39,0.0,4.0,87,0.00,,-RA,0.00,0.00,VWS V14.01,2013-08-21 08:16:00,
2013-08-21 04:20:00,75.4,71.6,30.03,NNW,338,0.0,4.0,88,0.00,,,0.00,0.00,VWS V14.01,2013-08-21 08:20:00,
2013-08-21 04:25:00,75.3,71.5,30.03,NNW,338,0.0,4.0,88,0.00,,,0.00,0.00,VWS V14.01,2013-08-21 08:25:00,
2013-08-21 04:30:00,75.3,72.2,30.05,NNW,338,0.0,4.0,90,0.00,,,0.00,0.00,VWS V14.01,2013-08-21 08:30:00,
2013-08-21 04:35:00,75.1,72.0,30.05,NNW,338,0.0,0.0,90,0.00,,,0.00,0.00,VWS V14.01,2013-08-21 08:35:00,
2013-08-21 04:40:00,75.1,72.3,30.05,NNW,338,0.0,0.0,91,0.00,,,0.00,0.00,VWS V14.01,2013-08-21 08:40:00,
2013-08-21 04:45:00,74.9,72.1,30.06,NNW,337,2.0,3.0,91,0.03,,,0.03,0.00,VWS V14.01,2013-08-21 08:45:00,
2013-08-21 04:50:00,74.4,71.6,30.06,WSW,238,0.0,4.0,91,0.06,,,0.06,0.00,VWS V14.01,2013-08-21 08:50:00,
2013-08-21 04:55:00,74.0,70.9,30.06,WSW,238,0.0,4.0,90,0.08,,,0.08,0.00,VWS V14.01,2013-08-21 08:55:00,
2013-08-21 05:00:00,73.7,70.6,30.04,WSW,238,1.0,4.0,90,0.08,,RA,0.08,0.00,VWS V14.01,2013-08-21 09:00:00,
2013-08-21 05:05:00,73.7,70.9,30.04,WSW,239,3.0,3.0,91,0.08,,RA,0.08,0.00,VWS V14.01,2013-08-21 09:05:00,
2013-08-21 05:10:00,74.0,71.8,30.04,NW,316,3.0,5.0,93,0.08,,RA,0.08,0.00,VWS V14.01,2013-08-21 09:10:00,
2013-08-21 05:15:00,74.0,71.5,30.04,NE,41,7.0,9.0,92,0.10,,RA,0.10,0.00,VWS V14.01,2013-08-21 09:15:00,
2013-08-21 05:20:00,73.7,70.6,30.04,ENE,69,5.0,9.0,90,0.10,,-RA,0.10,0.00,VWS V14.01,2013-08-21 09:20:00,
2013-08-21 05:25:00,73.7,70.6,30.04,ENE,75,5.0,9.0,90,0.12,,-RA,0.12,0.00,VWS V14.01,2013-08-21 09:25:00,
2013-08-21 05:30:00,73.5,70.4,30.03,ENE,78,5.0,9.0,90,0.13,,-RA,0.13,0.00,VWS V14.01,2013-08-21 09:30:00,
2013-08-21 05:35:00,73.2,70.4,30.03,East,82,5.0,7.0,91,0.15,,-RA,0.15,0.00,VWS V14.01,2013-08-21 09:35:00,
2013-08-21 05:40:00,73.0,70.5,30.03,ENE,59,5.0,7.0,92,0.16,,-RA,0.16,0.00,VWS V14.01,2013-08-21 09:40:00,
2013-08-21 05:45:00,73.3,71.5,30.02,ENE,57,7.0,10.0,94,0.18,,-RA,0.18,0.00,VWS V14.01,2013-08-21 09:45:00,
2013-08-21 05:50:00,74.0,72.5,30.02,ENE,63,7.0,11.0,95,0.19,,-RA,0.19,0.00,VWS V14.01,2013-08-21 09:50:00,
2013-08-21 05:55:00,73.7,71.9,30.02,ENE,61,6.0,11.0,94,0.20,,-RA,0.20,0.00,VWS V14.01,2013-08-21 09:55:00,
2013-08-21 06:00:00,73.9,72.4,30.02,NE,40,4.0,11.0,95,0.21,,FEW080,0.21,0.00,VWS V14.01,2013-08-21 10:00:00,
2013-08-21 06:05:00,73.7,72.2,30.02,NNE,22,5.0,6.0,95,0.13,,FEW080,0.21,0.00,VWS V14.01,2013-08-21 10:05:00,
2013-08-21 06:10:00,73.7,71.9,30.02,North,9,4.0,6.0,94,0.14,,FEW080,0.22,0.00,VWS V14.01,2013-08-21 10:10:00,
2013-08-21 06:15:00,73.5,71.4,30.03,WNW,294,2.0,6.0,93,0.14,,FEW080,0.22,0.00,VWS V14.01,2013-08-21 10:15:00,
2013-08-21 06:20:00,73.5,71.4,30.03,SW,230,0.0,6.0,93,0.14,,FEW080,0.22,0.00,VWS V14.01,2013-08-21 10:20:00,
2013-08-21 06:25:00,73.3,71.2,30.03,SW,229,0.0,6.0,93,0.14,,FEW080,0.22,0.00,VWS V14.01,2013-08-21 10:25:00,
2013-08-21 06:30:00,73.3,71.2,30.04,NW,306,0.0,6.0,93,0.14,,FEW080,0.22,0.00,VWS V14.01,2013-08-21 10:30:00,
2013-08-21 06:35:00,73.0,70.9,30.04,NW,322,0.0,1.0,93,0.09,,FEW080,0.22,0.00,VWS V14.01,2013-08-21 10:35:00,
2013-08-21 06:40:00,72.8,71.0,30.04,NW,321,0.0,1.0,94,0.09,,FEW080,0.22,0.00,VWS V14.01,2013-08-21 10:40:00,
2013-08-21 06:45:00,72.7,70.9,30.04,NW,324,0.0,2.0,94,0.09,,FEW080,0.22,0.00,VWS V14.01,2013-08-21 10:45:00,
2013-08-21 06:50:00,72.5,71.0,30.04,NW,323,0.0,4.0,95,0.09,,FEW080,0.22,0.00,VWS V14.01,2013-08-21 10:50:00,
2013-08-21 06:55:00,72.5,71.0,30.04,NW,324,0.0,4.0,95,0.09,,FEW080,0.22,0.00,VWS V14.01,2013-08-21 10:55:00,
2013-08-21 07:00:00,72.3,70.8,30.05,SSE,161,0.0,4.0,95,0.09,,FEW045,0.22,0.00,VWS V14.01,2013-08-21 11:00:00,
2013-08-21 07:05:00,72.1,70.6,30.05,SSE,161,0.0,1.0,95,0.01,,FEW045,0.22,0.00,VWS V14.01,2013-08-21 11:05:00,
2013-08-21 07:10:00,72.1,70.6,30.05,SSE,161,0.0,1.0,95,0.01,,FEW045,0.22,5.00,VWS V14.01,2013-08-21 11:10:00,
2013-08-21 07:15:00,72.0,70.5,30.07,SSE,161,0.0,1.0,95,0.01,,FEW045,0.22,7.00,VWS V14.01,2013-08-21 11:15:00,
2013-08-21 07:20:00,71.8,70.3,30.07,SSE,161,0.0,1.0,95,0.01,,FEW045,0.22,9.00,VWS V14.01,2013-08-21 11:20:00,
2013-08-21 07:25:00,71.8,70.3,30.07,SSE,161,0.0,1.0,95,0.01,,FEW045,0.22,14.00,VWS V14.01,2013-08-21 11:25:00,
2013-08-21 07:30:00,72.1,70.9,30.08,SSE,157,3.0,5.0,96,0.01,,FEW045,0.22,18.00,VWS V14.01,2013-08-21 11:30:00,
2013-08-21 07:35:00,72.1,70.9,30.08,SE,142,2.0,5.0,96,0.00,,FEW045,0.22,21.00,VWS V14.01,2013-08-21 11:35:00,
2013-08-21 07:40:00,72.3,71.1,30.08,SE,142,2.0,5.0,96,0.00,,FEW045,0.22,19.00,VWS V14.01,2013-08-21 11:40:00,
2013-08-21 07:45:00,72.3,70.8,30.07,SE,142,0.0,5.0,95,0.00,,FEW045,0.22,19.00,VWS V14.01,2013-08-21 11:45:00,
2013-08-21 07:50:00,72.3,70.8,30.07,SE,142,0.0,5.0,95,0.00,,FEW045,0.22,21.00,VWS V14.01,2013-08-21 11:50:00,
2013-08-21 07:55:00,72.7,71.2,30.07,SE,126,3.0,6.0,95,0.00,,FEW045,0.22,28.00,VWS V14.01,2013-08-21 11:55:00,
2013-08-21 08:00:00,72.5,71.0,30.07,SE,135,0.0,6.0,95,0.00,,-RA,0.22,35.00,VWS V14.01,2013-08-21 12:00:00,
2013-08-21 08:05:00,72.5,71.0,30.07,SE,134,0.0,5.0,95,0.00,,-RA,0.22,42.00,VWS V14.01,2013-08-21 12:05:00,
2013-08-21 08:10:00,72.5,71.0,30.07,SE,131,0.0,5.0,95,0.00,,-RA,0.22,51.00,VWS V14.01,2013-08-21 12:10:00,
2013-08-21 08:15:00,72.5,70.7,30.08,SE,132,0.0,5.0,94,0.00,,-RA,0.22,53.00,VWS V14.01,2013-08-21 12:15:00,
2013-08-21 08:20:00,72.5,71.0,30.08,SE,131,0.0,5.0,95,0.00,,-RA,0.22,58.00,VWS V14.01,2013-08-21 12:20:00,
2013-08-21 08:25:00,72.7,70.9,30.08,SE,131,0.0,5.0,94,0.00,,-RA,0.22,67.00,VWS V14.01,2013-08-21 12:25:00,
2013-08-21 08:30:00,72.7,70.6,30.08,SE,131,0.0,5.0,93,0.00,,-RA,0.22,67.00,VWS V14.01,2013-08-21 12:30:00,
2013-08-21 08:35:00,73.0,71.2,30.08,SE,131,0.0,3.0,94,0.00,,-RA,0.22,76.00,VWS V14.01,2013-08-21 12:35:00,
2013-08-21 08:40:00,73.2,71.7,30.08,SE,131,0.0,3.0,95,0.00,,-RA,0.22,109.00,VWS V14.01,2013-08-21 12:40:00,
2013-08-21 08:45:00,73.3,71.8,30.08,SE,131,0.0,3.0,95,0.00,,-RA,0.22,100.00,VWS V14.01,2013-08-21 12:45:00,
2013-08-21 08:50:00,73.5,71.7,30.08,SE,131,0.0,3.0,94,0.00,,-RA,0.22,95.00,VWS V14.01,2013-08-21 12:50:00,
2013-08-21 08:55:00,73.5,71.7,30.08,SE,132,4.0,4.0,94,0.00,,-RA,0.22,86.00,VWS V14.01,2013-08-21 12:55:00,
2013-08-21 09:00:00,73.5,71.7,30.09,WNW,292,0.0,5.0,94,0.00,,-RA,0.22,93.00,VWS V14.01,2013-08-21 13:00:00,
2013-08-21 09:05:00,73.7,71.9,30.09,WNW,292,0.0,2.0,94,0.00,,BKN055,0.22,100.00,VWS V14.01,2013-08-21 13:05:00,
2013-08-21 09:10:00,73.7,71.9,30.09,WNW,292,0.0,2.0,94,0.00,,BKN055,0.22,77.00,VWS V14.01,2013-08-21 13:10:00,
2013-08-21 09:15:00,73.7,71.9,30.09,WNW,291,0.0,2.0,94,0.00,,BKN055,0.22,79.00,VWS V14.01,2013-08-21 13:15:00,
2013-08-21 09:20:00,73.7,71.9,30.09,NW,307,0.0,2.0,94,0.00,,BKN055,0.22,104.00,VWS V14.01,2013-08-21 13:20:00,
2013-08-21 09:25:00,73.9,71.8,30.09,NW,318,0.0,2.0,93,0.00,,BKN055,0.22,172.00,VWS V14.01,2013-08-21 13:25:00,
2013-08-21 09:30:00,73.9,71.8,30.09,NW,318,0.0,2.0,93,0.00,,BKN055,0.22,158.00,VWS V14.01,2013-08-21 13:30:00,
2013-08-21 09:35:00,74.0,71.8,30.09,NW,318,0.0,0.0,93,0.00,,BKN055,0.22,156.00,VWS V14.01,2013-08-21 13:35:00,
2013-08-21 09:40:00,74.2,71.7,30.09,NW,318,0.0,2.0,92,0.00,,BKN070,0.22,149.00,VWS V14.01,2013-08-21 13:40:00,
2013-08-21 09:45:00,74.2,71.7,30.09,NNW,328,0.0,2.0,92,0.00,,BKN070,0.22,132.00,VWS V14.01,2013-08-21 13:45:00,
2013-08-21 09:50:00,74.4,71.9,30.09,NNW,330,2.0,2.0,92,0.00,,BKN070,0.22,169.00,VWS V14.01,2013-08-21 13:50:00,
2013-08-21 09:55:00,74.6,72.1,30.09,NNW,330,2.0,4.0,92,0.00,,BKN070,0.22,174.00,VWS V14.01,2013-08-21 13:55:00,
2013-08-21 10:00:00,74.6,71.5,30.10,North,11,3.0,5.0,90,0.00,,BKN070,0.22,176.00,VWS V14.01,2013-08-21 14:00:00,
2013-08-21 10:05:00,74.6,71.5,30.10,North,11,0.0,3.0,90,0.00,,OVC041,0.22,149.00,VWS V14.01,2013-08-21 14:05:00,
2013-08-21 10:10:00,74.6,71.2,30.10,North,11,2.0,4.0,89,0.00,,OVC041,0.22,149.00,VWS V14.01,2013-08-21 14:10:00,
2013-08-21 10:15:00,74.6,71.2,30.10,North,11,2.0,4.0,89,0.00,,OVC041,0.22,137.00,VWS V14.01,2013-08-21 14:15:00,
2013-08-21 10:20:00,74.7,70.9,30.10,North,11,1.0,4.0,88,0.00,,OVC041,0.22,125.00,VWS V14.01,2013-08-21 14:20:00,
2013-08-21 10:25:00,74.7,70.6,30.10,North,11,1.0,4.0,87,0.00,,OVC041,0.22,111.00,VWS V14.01,2013-08-21 14:25:00,
2013-08-21 10:30:00,74.7,71.6,30.11,NNW,343,5.0,5.0,90,0.00,,OVC041,0.22,93.00,VWS V14.01,2013-08-21 14:30:00,
2013-08-21 10:35:00,74.7,71.2,30.11,NNW,343,0.0,5.0,89,0.00,,OVC041,0.22,113.00,VWS V14.01,2013-08-21 14:35:00,
2013-08-21 10:40:00,74.6,71.5,30.11,WNW,302,5.0,7.0,90,0.00,,OVC041,0.22,113.00,VWS V14.01,2013-08-21 14:40:00,
2013-08-21 10:45:00,74.6,71.5,30.11,WNW,284,3.0,7.0,90,0.00,,OVC041,0.22,125.00,VWS V14.01,2013-08-21 14:45:00,
2013-08-21 10:50:00,74.4,71.3,30.11,WNW,285,1.0,7.0,90,0.00,,OVC041,0.22,121.00,VWS V14.01,2013-08-21 14:50:00,
2013-08-21 10:55:00,74.6,71.8,30.11,West,280,5.0,7.0,91,0.00,,OVC041,0.22,142.00,VWS V14.01,2013-08-21 14:55:00,
2013-08-21 11:00:00,74.6,71.5,30.11,WNW,284,5.0,7.0,90,0.00,,OVC041,0.22,146.00,VWS V14.01,2013-08-21 15:00:00,
2013-08-21 11:05:00,74.6,71.8,30.11,WNW,286,3.0,5.0,91,0.00,,OVC004,0.22,135.00,VWS V14.01,2013-08-21 15:05:00,
2013-08-21 11:10:00,74.6,71.5,30.11,WNW,286,3.0,5.0,90,0.00,,OVC004,0.22,130.00,VWS V14.01,2013-08-21 15:10:00,
2013-08-21 11:15:00,74.7,71.9,30.12,WNW,299,4.0,5.0,91,0.00,,OVC004,0.22,113.00,VWS V14.01,2013-08-21 15:15:00,
2013-08-21 11:20:00,74.6,71.5,30.12,NW,309,4.0,6.0,90,0.00,,OVC004,0.22,109.00,VWS V14.01,2013-08-21 15:20:00,
2013-08-21 11:25:00,74.7,72.2,30.12,WNW,297,3.0,7.0,92,0.00,,OVC006,0.22,104.00,VWS V14.01,2013-08-21 15:25:00,
2013-08-21 11:30:00,74.7,72.6,30.12,WNW,302,6.0,7.0,93,0.00,,OVC006,0.22,83.00,VWS V14.01,2013-08-21 15:30:00,
2013-08-21 11:35:00,74.7,71.9,30.12,WNW,300,4.0,6.0,91,0.00,,OVC006,0.22,79.00,VWS V14.01,2013-08-21 15:35:00,
2013-08-21 11:40:00,74.6,71.8,30.12,WNW,294,3.0,6.0,91,0.00,,OVC006,0.22,95.00,VWS V14.01,2013-08-21 15:40:00,
2013-08-21 11:45:00,74.4,71.9,30.12,WNW,288,6.0,7.0,92,0.00,,OVC006,0.22,116.00,VWS V14.01,2013-08-21 15:45:00,
2013-08-21 11:50:00,74.2,71.7,30.12,West,280,3.0,7.0,92,0.00,,OVC006,0.22,127.00,VWS V14.01,2013-08-21 15:50:00,
2013-08-21 11:55:00,74.0,71.5,30.12,West,279,4.0,7.0,92,0.00,,OVC006,0.22,130.00,VWS V14.01,2013-08-21 15:55:00,
2013-08-21 12:00:00,74.0,71.5,30.12,WNW,291,3.0,10.0,92,0.00,,OVC006,0.22,109.00,VWS V14.01,2013-08-21 16:00:00,
2013-08-21 12:05:00,74.0,71.5,30.12,WNW,283,0.0,7.0,92,0.00,,OVC012,0.22,97.00,VWS V14.01,2013-08-21 16:05:00,
2013-08-21 12:10:00,74.0,71.5,30.12,West,270,0.0,7.0,92,0.00,,OVC012,0.22,91.00,VWS V14.01,2013-08-21 16:10:00,
2013-08-21 12:15:00,73.9,71.4,30.12,WNW,286,0.0,7.0,92,0.00,,OVC012,0.22,91.00,VWS V14.01,2013-08-21 16:15:00,
2013-08-21 12:20:00,73.7,71.2,30.12,West,277,1.0,7.0,92,0.00,,OVC012,0.22,98.00,VWS V14.01,2013-08-21 16:20:00,
2013-08-21 12:25:00,73.7,70.9,30.12,WNW,285,4.0,7.0,91,0.00,,OVC012,0.22,109.00,VWS V14.01,2013-08-21 16:25:00,
2013-08-21 12:30:00,73.3,69.9,30.11,WNW,292,5.0,10.0,89,0.00,,OVC012,0.22,111.00,VWS V14.01,2013-08-21 16:30:00,
2013-08-21 12:35:00,73.3,70.2,30.11,West,260,4.0,7.0,90,0.00,,OVC012,0.22,114.00,VWS V14.01,2013-08-21 16:35:00,
2013-08-21 12:40:00,73.2,70.1,30.11,West,261,1.0,7.0,90,0.00,,OVC012,0.22,121.00,VWS V14.01,2013-08-21 16:40:00,
2013-08-21 12:45:00,73.2,70.7,30.11,West,263,4.0,7.0,92,0.01,,BKN042,0.23,132.00,VWS V14.01,2013-08-21 16:45:00,
2013-08-21 12:50:00,73.0,70.2,30.11,West,267,2.0,7.0,91,0.02,,BKN042,0.24,146.00,VWS V14.01,2013-08-21 16:50:00,
2013-08-21 12:55:00,73.0,70.5,30.11,West,267,0.0,7.0,92,0.02,,BKN042,0.24,171.00,VWS V14.01,2013-08-21 16:55:00,
2013-08-21 13:00:00,73.0,70.9,30.11,West,267,1.0,7.0,93,0.02,,BKN042,0.24,199.00,VWS V14.01,2013-08-21 17:00:00,
2013-08-21 13:05:00,73.3,71.2,30.11,West,275,4.0,5.0,93,0.02,,-RA,0.24,204.00,VWS V14.01,2013-08-21 17:05:00,
2013-08-21 13:10:00,73.3,71.2,30.11,West,269,2.0,5.0,93,0.02,,-RA,0.24,227.00,VWS V14.01,2013-08-21 17:10:00,
2013-08-21 13:15:00,73.3,70.8,30.11,WNW,290,0.0,6.0,92,0.02,,-RA,0.24,285.00,VWS V14.01,2013-08-21 17:15:00,
2013-08-21 13:20:00,73.5,71.4,30.11,North,355,3.0,6.0,93,0.02,,-RA,0.24,322.00,VWS V14.01,2013-08-21 17:20:00,
2013-08-21 13:25:00,73.7,71.6,30.11,NW,316,4.0,6.0,93,0.02,,-RA,0.24,285.00,VWS V14.01,2013-08-21 17:25:00,
2013-08-21 13:29:00,73.9,71.8,30.11,NW,313,4.0,6.0,93,0.02,,-RA,0.24,236.00,VWS V14.01,2013-08-21 17:29:00,
2013-08-21 13:30:00,73.3,70.2,30.11,West,275,5.0,10.0,90,0.00,,,0.22,111.00,VWS V14.01,2013-08-21 17:30:00,
2013-08-21 13:34:00,74.0,71.8,30.10,NW,317,1.0,5.0,93,0.02,,-RA,0.24,264.00,VWS V14.01,2013-08-21 17:34:00,
2013-08-21 13:39:00,73.9,71.4,30.10,WNW,298,5.0,7.0,92,0.02,,-RA,0.24,297.00,VWS V14.01,2013-08-21 17:39:00,
2013-08-21 13:44:00,73.9,71.1,30.10,West,265,0.0,7.0,91,0.02,,BKN035,0.24,359.00,VWS V14.01,2013-08-21 17:44:00,
2013-08-21 13:49:00,73.9,70.5,30.09,WSW,252,6.0,7.0,89,0.02,,BKN035,0.24,378.00,VWS V14.01,2013-08-21 17:49:00,
2013-08-21 13:54:00,73.7,69.6,30.09,WSW,255,1.0,7.0,87,0.02,,BKN035,0.24,394.00,VWS V14.01,2013-08-21 17:54:00,
2013-08-21 13:59:00,73.7,70.3,30.09,West,265,1.0,7.0,89,0.02,,BKN035,0.24,404.00,VWS V14.01,2013-08-21 17:59:00,
2013-08-21 14:00:00,73.0,70.9,30.11,West,273,3.0,7.0,93,0.02,,,0.24,199.00,VWS V14.01,2013-08-21 18:00:00,
2013-08-21 14:04:00,74.0,70.2,30.08,WSW,253,0.0,5.0,88,0.00,,BKN009,0.24,431.00,VWS V14.01,2013-08-21 18:04:00,
2013-08-21 14:09:00,74.2,69.8,30.08,WSW,253,0.0,5.0,86,0.00,,BKN009,0.24,455.00,VWS V14.01,2013-08-21 18:09:00,
2013-08-21 14:14:00,74.4,70.3,30.08,WSW,254,0.0,5.0,87,0.00,,BKN009,0.24,454.00,VWS V14.01,2013-08-21 18:14:00,
2013-08-21 14:19:00,74.4,70.3,30.08,West,271,3.0,5.0,87,0.00,,BKN009,0.24,510.00,VWS V14.01,2013-08-21 18:19:00,
2013-08-21 14:24:00,74.6,69.1,30.08,WSW,256,0.0,5.0,83,0.00,,BKN014,0.24,420.00,VWS V14.01,2013-08-21 18:24:00,
2013-08-21 14:29:00,74.7,69.6,30.08,WSW,257,0.0,5.0,84,0.00,,BKN014,0.24,392.00,VWS V14.01,2013-08-21 18:29:00,
2013-08-21 14:30:00,73.9,71.8,30.10,NW,315,0.0,6.0,93,0.02,,,0.24,237.00,VWS V14.01,2013-08-21 18:30:00,
2013-08-21 14:34:00,74.9,69.0,30.08,WSW,258,4.0,4.0,82,0.00,,BKN014,0.24,401.00,VWS V14.01,2013-08-21 18:34:00,
2013-08-21 14:39:00,75.1,69.6,30.08,West,261,2.0,5.0,83,0.00,,BKN014,0.24,420.00,VWS V14.01,2013-08-21 18:39:00,
2013-08-21 14:44:00,75.1,69.2,30.08,WNW,302,3.0,5.0,82,0.00,,BKN014,0.24,392.00,VWS V14.01,2013-08-21 18:44:00,
2013-08-21 14:49:00,75.3,69.4,30.07,WNW,291,1.0,5.0,82,0.00,,BKN014,0.24,399.00,VWS V14.01,2013-08-21 18:49:00,
2013-08-21 14:54:00,75.3,69.4,30.07,West,280,4.0,7.0,82,0.00,,BKN014,0.24,380.00,VWS V14.01,2013-08-21 18:54:00,
2013-08-21 14:59:00,75.3,69.8,30.07,West,266,1.0,7.0,83,0.00,,BKN014,0.24,452.00,VWS V14.01,2013-08-21 18:59:00,
2013-08-21 15:00:00,73.9,69.8,30.08,West,271,5.0,7.0,87,0.02,,,0.24,406.00,VWS V14.01,2013-08-21 19:00:00,
2013-08-21 15:04:00,75.4,70.2,30.06,West,269,0.0,7.0,84,0.00,,SCT015,0.24,410.00,VWS V14.01,2013-08-21 19:04:00,
2013-08-21 15:09:00,75.4,70.2,30.06,West,271,0.0,7.0,84,0.00,,SCT015,0.24,633.00,VWS V14.01,2013-08-21 19:09:00,
2013-08-21 15:14:00,75.6,69.7,30.06,West,280,3.0,7.0,82,0.00,,SCT015,0.24,930.00,VWS V14.01,2013-08-21 19:14:00,
2013-08-21 15:19:00,75.8,69.9,30.06,West,277,0.0,9.0,82,0.00,,SCT015,0.24,1034.00,VWS V14.01,2013-08-21 19:19:00,
2013-08-21 15:24:00,76.1,70.9,30.06,North,11,4.0,9.0,84,0.00,,SCT015,0.24,1005.00,VWS V14.01,2013-08-21 19:24:00,
2013-08-21 15:29:00,76.8,70.2,30.06,North,350,4.0,9.0,80,0.00,,SCT015,0.24,898.00,VWS V14.01,2013-08-21 19:29:00,
2013-08-21 15:30:00,74.7,69.2,30.08,WSW,257,1.0,5.0,83,0.00,,,0.24,390.00,VWS V14.01,2013-08-21 19:30:00,
2013-08-21 15:34:00,77.4,68.9,30.05,NW,320,4.0,5.0,75,0.00,,SCT015,0.24,802.00,VWS V14.01,2013-08-21 19:34:00,
2013-08-21 15:39:00,77.7,69.5,30.05,ENE,69,0.0,5.0,76,0.00,,SCT015,0.24,380.00,VWS V14.01,2013-08-21 19:39:00,
2013-08-21 15:44:00,77.9,69.7,30.05,ESE,103,1.0,5.0,76,0.00,,SCT015,0.24,322.00,VWS V14.01,2013-08-21 19:44:00,
2013-08-21 15:49:00,78.3,70.5,30.05,SE,134,0.0,5.0,77,0.00,,SCT015,0.24,396.00,VWS V14.01,2013-08-21 19:49:00,
2013-08-21 15:54:00,78.5,69.9,30.05,SE,134,0.0,5.0,75,0.00,,SCT015,0.24,413.00,VWS V14.01,2013-08-21 19:54:00,
2013-08-21 15:59:00,78.5,70.3,30.05,SE,136,0.0,5.0,76,0.00,,SCT015,0.24,490.00,VWS V14.01,2013-08-21 19:59:00,
2013-08-21 16:00:00,75.4,70.6,30.06,WNW,288,6.0,10.0,85,0.00,,,0.24,524.00,VWS V14.01,2013-08-21 20:00:00,
2013-08-21 16:04:00,78.6,70.8,30.04,SE,136,2.0,4.0,77,0.00,,FEW015,0.24,455.00,VWS V14.01,2013-08-21 20:04:00,
2013-08-21 16:09:00,78.6,70.8,30.04,SE,136,4.0,4.0,77,0.00,,FEW015,0.24,1044.00,VWS V14.01,2013-08-21 20:09:00,
2013-08-21 16:14:00,78.6,70.8,30.04,SE,135,3.0,5.0,77,0.00,,FEW015,0.24,1049.00,VWS V14.01,2013-08-21 20:14:00,
2013-08-21 16:19:00,78.3,70.1,30.03,SE,135,2.0,5.0,76,0.00,,FEW015,0.24,471.00,VWS V14.01,2013-08-21 20:19:00,
2013-08-21 16:24:00,78.6,70.0,30.03,SE,135,0.0,5.0,75,0.00,,FEW015,0.24,796.00,VWS V14.01,2013-08-21 20:24:00,
2013-08-21 16:29:00,78.6,70.0,30.03,SE,135,2.0,5.0,75,0.00,,FEW015,0.24,645.00,VWS V14.01,2013-08-21 20:29:00,
2013-08-21 16:30:00,77.0,70.7,30.05,NNE,14,4.0,9.0,81,0.00,,,0.24,842.00,VWS V14.01,2013-08-21 20:30:00,
2013-08-21 16:34:00,78.8,70.6,30.03,SE,135,0.0,1.0,76,0.00,,FEW015,0.24,601.00,VWS V14.01,2013-08-21 20:34:00,
2013-08-21 16:39:00,79.2,70.2,30.03,SE,135,0.0,2.0,74,0.00,,FEW015,0.24,758.00,VWS V14.01,2013-08-21 20:39:00,
2013-08-21 16:44:00,79.2,69.8,30.03,SE,135,0.0,4.0,73,0.00,,FEW015,0.24,714.00,VWS V14.01,2013-08-21 20:44:00,
2013-08-21 16:49:00,79.6,69.8,30.03,SE,135,1.0,4.0,72,0.00,,FEW015,0.24,596.00,VWS V14.01,2013-08-21 20:49:00,
2013-08-21 16:54:00,79.6,69.8,30.03,SE,135,0.0,4.0,72,0.00,,FEW015,0.24,448.00,VWS V14.01,2013-08-21 20:54:00,
2013-08-21 16:59:00,79.9,71.3,30.03,SE,131,0.0,5.0,75,0.00,,FEW015,0.24,580.00,VWS V14.01,2013-08-21 20:59:00,
2013-08-21 17:00:00,78.6,70.0,30.04,SE,136,0.0,5.0,75,0.00,,,0.24,563.00,VWS V14.01,2013-08-21 21:00:00,
2013-08-21 17:04:00,80.3,70.9,30.03,SE,143,2.0,4.0,73,0.00,,SCT022,0.24,633.00,VWS V14.01,2013-08-21 21:04:00,
2013-08-21 17:09:00,80.7,71.2,30.03,SE,138,2.0,5.0,73,0.00,,SCT022,0.24,606.00,VWS V14.01,2013-08-21 21:09:00,
2013-08-21 17:14:00,80.9,70.2,30.03,SE,138,0.0,5.0,70,0.00,,SCT022,0.24,522.00,VWS V14.01,2013-08-21 21:14:00,
2013-08-21 17:19:00,81.1,70.4,30.02,SE,140,0.0,5.0,70,0.00,,SCT022,0.24,538.00,VWS V14.01,2013-08-21 21:19:00,
2013-08-21 17:24:00,80.9,70.6,30.02,ESE,119,0.0,5.0,71,0.00,,BKN022,0.24,536.00,VWS V14.01,2013-08-21 21:24:00,
2013-08-21 17:29:00,80.5,69.8,30.02,SE,126,0.0,5.0,70,0.00,,BKN022,0.24,526.00,VWS V14.01,2013-08-21 21:29:00,
2013-08-21 17:30:00,78.6,69.6,30.03,SE,135,0.0,5.0,74,0.00,,,0.24,731.00,VWS V14.01,2013-08-21 21:30:00,
2013-08-21 17:34:00,81.1,70.0,30.02,SE,126,0.0,0.0,69,0.00,,BKN022,0.24,425.00,VWS V14.01,2013-08-21 21:34:00,
2013-08-21 17:39:00,81.6,71.3,30.02,SE,126,0.0,1.0,71,0.00,,BKN022,0.24,185.00,VWS V14.01,2013-08-21 21:39:00,
2013-08-21 17:44:00,81.6,70.9,30.02,SE,126,0.0,1.0,70,0.00,,SCT022,0.24,148.00,VWS V14.01,2013-08-21 21:44:00,
2013-08-21 17:49:00,81.2,70.9,30.02,SE,126,0.0,1.0,71,0.00,,SCT022,0.24,149.00,VWS V14.01,2013-08-21 21:49:00,
2013-08-21 17:54:00,81.2,71.3,30.02,SE,126,0.0,1.0,72,0.00,,SCT022,0.24,178.00,VWS V14.01,2013-08-21 21:54:00,
2013-08-21 17:59:00,81.2,70.5,30.02,SE,126,0.0,1.0,70,0.00,,SCT022,0.24,250.00,VWS V14.01,2013-08-21 21:59:00,
2013-08-21 18:00:00,79.9,70.1,30.03,SE,131,0.0,5.0,72,0.00,,,0.24,601.00,VWS V14.01,2013-08-21 22:00:00,
2013-08-21 18:04:00,81.6,70.9,30.01,SE,146,0.0,0.0,70,0.00,,CLR,0.24,450.00,VWS V14.01,2013-08-21 22:04:00,
2013-08-21 18:09:00,82.0,70.8,30.01,SSE,150,0.0,0.0,69,0.00,,CLR,0.24,79.00,VWS V14.01,2013-08-21 22:09:00,
2013-08-21 18:14:00,82.0,71.3,30.01,SSE,150,0.0,0.0,70,0.00,,CLR,0.24,83.00,VWS V14.01,2013-08-21 22:14:00,
2013-08-21 18:19:00,81.8,71.9,30.00,SSE,152,0.0,0.0,72,0.00,,CLR,0.24,367.00,VWS V14.01,2013-08-21 22:19:00,
2013-08-21 18:24:00,81.8,70.2,30.00,SSE,153,0.0,0.0,68,0.00,,CLR,0.24,325.00,VWS V14.01,2013-08-21 22:24:00,
2013-08-21 18:29:00,82.0,71.7,30.00,SSE,153,0.0,0.0,71,0.00,,CLR,0.24,199.00,VWS V14.01,2013-08-21 22:29:00,
2013-08-21 18:30:00,80.7,70.4,30.02,SE,126,0.0,5.0,71,0.00,,,0.24,503.00,VWS V14.01,2013-08-21 22:30:00,
2013-08-21 18:34:00,82.4,70.3,30.00,SSE,153,0.0,0.0,67,0.00,,CLR,0.24,248.00,VWS V14.01,2013-08-21 22:34:00,
2013-08-21 18:39:00,82.6,71.4,30.00,SSE,153,0.0,1.0,69,0.00,,CLR,0.24,156.00,VWS V14.01,2013-08-21 22:39:00,
2013-08-21 18:44:00,82.2,71.4,30.00,SSE,153,0.0,1.0,70,0.00,,CLR,0.24,176.00,VWS V14.01,2013-08-21 22:44:00,
2013-08-21 18:49:00,81.8,71.5,30.00,SSE,156,0.0,1.0,71,0.00,,CLR,0.24,137.00,VWS V14.01,2013-08-21 22:49:00,
2013-08-21 18:54:00,81.8,71.5,30.00,SSE,158,0.0,1.0,71,0.00,,CLR,0.24,130.00,VWS V14.01,2013-08-21 22:54:00,
2013-08-21 18:59:00,81.6,72.1,30.00,SSW,198,0.0,1.0,73,0.00,,CLR,0.24,113.00,VWS V14.01,2013-08-21 22:59:00,
2013-08-21 19:00:00,81.4,70.3,30.01,SE,128,0.0,1.0,69,0.00,,,0.24,197.00,VWS V14.01,2013-08-21 23:00:00,
2013-08-21 19:04:00,80.9,73.4,30.01,SW,234,0.0,1.0,78,0.00,,CLR,0.24,93.00,VWS V14.01,2013-08-21 23:04:00,
2013-08-21 19:09:00,80.3,72.4,30.01,West,272,0.0,1.0,77,0.00,,CLR,0.24,83.00,VWS V14.01,2013-08-21 23:09:00,
2013-08-21 19:14:00,79.9,72.4,30.01,West,277,0.0,1.0,78,0.00,,CLR,0.24,74.00,VWS V14.01,2013-08-21 23:14:00,
2013-08-21 19:19:00,79.8,72.3,30.01,NNW,337,0.0,1.0,78,0.00,,CLR,0.24,60.00,VWS V14.01,2013-08-21 23:19:00,
2013-08-21 19:24:00,79.6,72.5,30.01,North,349,0.0,1.0,79,0.00,,CLR,0.24,46.00,VWS V14.01,2013-08-21 23:24:00,
2013-08-21 19:29:00,79.2,71.8,30.01,NNE,24,0.0,1.0,78,0.00,,CLR,0.24,44.00,VWS V14.01,2013-08-21 23:29:00,
2013-08-21 19:30:00,82.2,71.0,30.00,SSE,153,0.0,0.0,69,0.00,,,0.24,199.00,VWS V14.01,2013-08-21 23:30:00,
2013-08-21 19:34:00,78.8,71.4,30.01,NE,34,0.0,0.0,78,0.00,,CLR,0.24,40.00,VWS V14.01,2013-08-21 23:34:00,
2013-08-21 19:39:00,78.8,72.1,30.01,East,92,0.0,0.0,80,0.00,,CLR,0.24,42.00,VWS V14.01,2013-08-21 23:39:00,
2013-08-21 19:44:00,78.6,71.9,30.01,ESE,105,0.0,0.0,80,0.00,,CLR,0.24,32.00,VWS V14.01,2013-08-21 23:44:00,
2013-08-21 19:49:00,78.6,71.6,30.01,ESE,107,0.0,0.0,79,0.00,,CLR,0.24,26.00,VWS V14.01,2013-08-21 23:49:00,
2013-08-21 19:54:00,78.5,72.2,30.01,ESE,114,0.0,0.0,81,0.00,,CLR,0.24,21.00,VWS V14.01,2013-08-21 23:54:00,
2013-08-21 19:59:00,78.3,72.0,30.01,ESE,120,0.0,0.0,81,0.00,,CLR,0.24,16.00,VWS V14.01,2013-08-21 23:59:00,
2013-08-21 20:00:00,81.4,73.1,30.01,SW,232,0.0,1.0,76,0.00,,,0.24,105.00,VWS V14.01,2013-08-22 00:00:00,
2013-08-21 20:04:00,78.1,72.2,30.01,ESE,121,0.0,0.0,82,0.00,,CLR,0.24,11.00,VWS V14.01,2013-08-22 00:04:00,
2013-08-21 20:09:00,77.9,72.7,30.01,ESE,121,0.0,0.0,84,0.00,,CLR,0.24,5.00,VWS V14.01,2013-08-22 00:09:00,
2013-08-21 20:14:00,77.6,72.4,30.01,ESE,121,0.0,0.0,84,0.00,,CLR,0.24,0.00,VWS V14.01,2013-08-22 00:14:00,
2013-08-21 20:19:00,77.4,72.2,30.00,ESE,121,0.0,0.0,84,0.00,,CLR,0.24,0.00,VWS V14.01,2013-08-22 00:19:00,
2013-08-21 20:24:00,77.2,72.3,30.00,ESE,121,0.0,0.0,85,0.00,,CLR,0.24,0.00,VWS V14.01,2013-08-22 00:24:00,
2013-08-21 20:29:00,76.8,72.3,30.00,SE,145,0.0,0.0,86,0.00,,CLR,0.24,0.00,VWS V14.01,2013-08-22 00:29:00,
2013-08-21 20:30:00,79.0,72.3,30.01,NNE,22,0.0,1.0,80,0.00,,,0.24,44.00,VWS V14.01,2013-08-22 00:30:00,
2013-08-21 20:34:00,76.7,72.5,30.01,SSE,154,0.0,0.0,87,0.00,,CLR,0.24,0.00,VWS V14.01,2013-08-22 00:34:00,
2013-08-21 20:39:00,76.5,72.7,30.01,SSE,155,0.0,0.0,88,0.00,,CLR,0.24,0.00,VWS V14.01,2013-08-22 00:39:00,
2013-08-21 20:44:00,76.5,72.7,30.01,SSE,155,0.0,0.0,88,0.00,,CLR,0.24,0.00,VWS V14.01,2013-08-22 00:44:00,
2013-08-21 20:49:00,76.5,73.0,30.01,SSE,155,0.0,0.0,89,0.00,,CLR,0.24,0.00,VWS V14.01,2013-08-22 00:49:00,
2013-08-21 20:54:00,76.3,73.2,30.01,SSE,155,0.0,0.0,90,0.00,,CLR,0.24,0.00,VWS V14.01,2013-08-22 00:54:00,
2013-08-21 20:59:00,76.1,73.0,30.01,SSE,155,0.0,0.0,90,0.00,,CLR,0.24,0.00,VWS V14.01,2013-08-22 00:59:00,
2013-08-21 21:00:00,78.3,72.0,30.01,ESE,121,0.0,0.0,81,0.00,,,0.24,12.00,VWS V14.01,2013-08-22 01:00:00,
2013-08-21 21:04:00,76.0,72.9,30.02,SSE,155,0.0,0.0,90,0.00,,FEW027,0.24,0.00,VWS V14.01,2013-08-22 01:04:00,
2013-08-21 21:09:00,75.8,72.7,30.02,SSE,155,0.0,0.0,90,0.00,,FEW027,0.24,0.00,VWS V14.01,2013-08-22 01:09:00,
2013-08-21 21:14:00,75.8,73.0,30.02,SSE,155,0.0,0.0,91,0.00,,FEW027,0.24,0.00,VWS V14.01,2013-08-22 01:14:00,
2013-08-21 21:19:00,76.0,73.2,30.03,SSE,155,0.0,0.0,91,0.00,,FEW027,0.24,0.00,VWS V14.01,2013-08-22 01:19:00,
2013-08-21 21:24:00,75.8,72.7,30.03,SSE,155,0.0,0.0,90,0.00,,BKN027,0.24,0.00,VWS V14.01,2013-08-22 01:24:00,
2013-08-21 21:29:00,75.8,73.0,30.03,WSW,254,0.0,3.0,91,0.00,,BKN027,0.24,0.00,VWS V14.01,2013-08-22 01:29:00,
2013-08-21 21:30:00,76.7,72.5,30.01,SSE,154,0.0,0.0,87,0.00,,,0.24,0.00,VWS V14.01,2013-08-22 01:30:00,
2013-08-21 21:34:00,75.4,72.3,30.03,WSW,252,3.0,4.0,90,0.00,,BKN027,0.24,0.00,VWS V14.01,2013-08-22 01:34:00,
2013-08-21 21:39:00,75.4,72.3,30.03,WSW,256,0.0,4.0,90,0.00,,BKN027,0.24,0.00,VWS V14.01,2013-08-22 01:39:00,
2013-08-21 21:44:00,75.3,72.2,30.03,WSW,256,0.0,4.0,90,0.00,,SCT027,0.24,0.00,VWS V14.01,2013-08-22 01:44:00,
2013-08-21 21:49:00,75.1,72.0,30.03,WSW,255,0.0,4.0,90,0.00,,SCT027,0.24,0.00,VWS V14.01,2013-08-22 01:49:00,
2013-08-21 21:54:00,75.1,72.3,30.03,WSW,254,0.0,4.0,91,0.00,,SCT027,0.24,0.00,VWS V14.01,2013-08-22 01:54:00,
2013-08-21 21:59:00,75.3,72.5,30.03,WSW,254,0.0,4.0,91,0.00,,SCT027,0.24,0.00,VWS V14.01,2013-08-22 01:59:00,
2013-08-21 22:00:00,76.1,73.0,30.02,SSE,155,0.0,0.0,90,0.00,,,0.24,0.00,VWS V14.01,2013-08-22 02:00:00,
2013-08-21 22:04:00,75.1,72.3,30.03,WSW,254,0.0,1.0,91,0.00,,CLR,0.24,0.00,VWS V14.01,2013-08-22 02:04:00,
2013-08-21 22:09:00,75.1,72.6,30.03,WSW,250,0.0,5.0,92,0.00,,CLR,0.24,0.00,VWS V14.01,2013-08-22 02:09:00,
2013-08-21 22:14:00,75.1,72.3,30.03,West,266,0.0,5.0,91,0.00,,CLR,0.24,0.00,VWS V14.01,2013-08-22 02:14:00,
2013-08-21 22:19:00,75.3,72.5,30.03,West,259,4.0,5.0,91,0.00,,CLR,0.24,0.00,VWS V14.01,2013-08-22 02:19:00,
2013-08-21 22:24:00,75.1,72.3,30.03,West,259,0.0,5.0,91,0.00,,CLR,0.24,0.00,VWS V14.01,2013-08-22 02:24:00,
2013-08-21 22:29:00,75.1,72.3,30.03,West,259,0.0,5.0,91,0.00,,CLR,0.24,0.00,VWS V14.01,2013-08-22 02:29:00,
2013-08-21 22:30:00,75.6,72.8,30.03,WSW,257,0.0,5.0,91,0.00,,,0.24,0.00,VWS V14.01,2013-08-22 02:30:00,
2013-08-21 22:34:00,74.9,71.8,30.04,West,259,1.0,3.0,90,0.00,,CLR,0.24,0.00,VWS V14.01,2013-08-22 02:34:00,
2013-08-21 22:39:00,74.9,71.8,30.04,West,259,0.0,4.0,90,0.00,,CLR,0.24,0.00,VWS V14.01,2013-08-22 02:39:00,
2013-08-21 22:44:00,74.7,71.2,30.04,West,259,0.0,4.0,89,0.00,,CLR,0.24,0.00,VWS V14.01,2013-08-22 02:44:00,
2013-08-21 22:49:00,74.6,71.2,30.04,West,259,0.0,4.0,89,0.00,,CLR,0.24,0.00,VWS V14.01,2013-08-22 02:49:00,
2013-08-21 22:54:00,74.6,71.2,30.04,West,259,0.0,4.0,89,0.00,,CLR,0.24,0.00,VWS V14.01,2013-08-22 02:54:00,
2013-08-21 22:59:00,74.4,70.6,30.04,West,259,0.0,4.0,88,0.00,,CLR,0.24,0.00,VWS V14.01,2013-08-22 02:59:00,
2013-08-21 23:00:00,75.3,72.8,30.03,WSW,254,0.0,4.0,92,0.00,,,0.24,0.00,VWS V14.01,2013-08-22 03:00:00,
2013-08-21 23:04:00,74.4,70.6,30.04,West,259,3.0,3.0,88,0.00,,CLR,0.00,0.00,VWS V14.01,2013-08-22 03:04:00,
2013-08-21 23:09:00,74.4,70.3,30.04,West,259,0.0,3.0,87,0.00,,CLR,0.00,0.00,VWS V14.01,2013-08-22 03:09:00,
2013-08-21 23:14:00,74.6,70.5,30.04,West,259,0.0,3.0,87,0.00,,CLR,0.00,0.00,VWS V14.01,2013-08-22 03:14:00,
2013-08-21 23:19:00,74.7,70.9,30.04,West,259,0.0,3.0,88,0.00,,CLR,0.00,0.00,VWS V14.01,2013-08-22 03:19:00,
2013-08-21 23:23:00,74.6,70.8,30.04,West,259,0.0,3.0,88,0.00,,CLR,0.00,0.00,VWS V14.01,2013-08-22 03:23:00,
2013-08-21 23:28:00,74.4,71.3,30.04,West,259,3.0,5.0,90,0.00,,CLR,0.00,0.00,VWS V14.01,2013-08-22 03:28:00,
2013-08-21 23:30:00,74.9,71.8,30.04,West,259,1.0,5.0,90,0.00,,,0.24,0.00,VWS V14.01,2013-08-22 03:30:00,
2013-08-21 23:33:00,74.0,71.2,30.03,West,259,0.0,0.0,91,0.00,,CLR,0.00,0.00,VWS V14.01,2013-08-22 03:33:00,
2013-08-21 23:38:00,73.7,70.9,30.03,West,259,0.0,0.0,91,0.00,,CLR,0.00,0.00,VWS V14.01,2013-08-22 03:38:00,
2013-08-21 23:43:00,73.5,70.7,30.03,West,259,0.0,0.0,91,0.00,,CLR,0.00,0.00,VWS V14.01,2013-08-22 03:43:00,
2013-08-21 23:48:00,73.5,70.7,30.03,West,259,0.0,2.0,91,0.00,,CLR,0.00,0.00,VWS V14.01,2013-08-22 03:48:00,
2013-08-21 23:53:00,73.3,70.2,30.03,West,259,0.0,2.0,90,0.00,,CLR,0.00,0.00,VWS V14.01,2013-08-22 03:53:00,
2013-08-21 23:58:00,73.2,70.1,30.03,West,259,0.0,2.0,90,0.00,,CLR,0.00,0.00,VWS V14.01,2013-08-22 03:58:00,